Air Resources Laboratory banner image
Air Resources Laboratory web site National Oceanic and Atmospheric Administration (NOAA)

sd metar


KSPF 191355Z AUTO 12004KT 8SM -SN M19/M22 A2993 RMK AO2=